Bryce Canyon Airport
KBCE : now visible

Airfield :











YOU CAN JOIN US ON...

 
LOGIN :

Register | Disclaimer

   EN    FR    IT 

 









Legend :    VFR   Marginal VFR   IFR   Intensive IFR   Very Intensive IFR
Visi :
Ceiling :
>= 8 km
>= 3000ft
5 to 8 km
1000 to 3000 ft
1500m to 5 km
500 to 1000 ft
800 to 1500m
200 to 500 ft
< 800m
< 200 ft
Symbols :   Thunderstorms  Fog  Heavy snow  Heavy precipitations  Wind > 20 kt






- Airport Elevation : 7590 ft


KBCE - Bryce Canyon

CURRENT METAR :
  • 142053Z AUTO 29013KT 10SM FEW060 03/M02 A2980 RMK AO2 SLP039 60005 T00281017 58016

EXPIRED METARs :
  • 141953Z AUTO 29012KT 9SM FEW008 SCT027 BKN037 02/M01 A2982 RMK AO2 SNE52 SLP046 P0001 T00221011
  • 141945Z AUTO 29012KT 3SM -SN FEW008 BKN019 OVC034 02/M01 A2982 RMK AO2 P0001 T00171011
  • 141906Z AUTO 31008KT 3SM -SN BR FEW008 BKN021 OVC038 02/M01 A2984 RMK AO2 P0001 T00171006
  • 141853Z AUTO 29009KT 3SM -SN BR FEW008 BKN013 OVC033 01/00 A2985 RMK AO2 RAE10SNB10 SLP061 P0004 T00110000
  • 141845Z AUTO 27006KT 1SM -SN BR BKN011 OVC035 01/00 A2985 RMK AO2 RAE10SNB10 P0004 T00110000
  • 141831Z AUTO 28007KT 2SM -SN BR FEW009 BKN012 OVC022 01/00 A2986 RMK AO2 RAE10SNB10 P0003 T00110000
  • 141823Z AUTO 28007KT 1 1/2SM -SN BR OVC012 01/00 A2986 RMK AO2 RAE10SNB10 P0003 T00110000

TAF KBCE
Valid from the 14 at 20:00 until the 15 at 18:00 UTC


142031Z 1420/1518 28006KT 6SM -SN BKN030
TEMPO 1420/1421 1SM -SN OVC012
FM142100 32005KT 6SM BR VCSH BKN025
FM150600 34009KT 6SM -SHSN OVC050
FM151000 32006KT 4SM -SN BKN020 OVC030



MET'MAP, your aeronautical weather chart ! - Copyright ORBIFLY December 2007 - Disclaimer

ORBIFLY MET'MAP TEAM :

Programming & Development : Alexandra Zaïnal
Concept & original design : Baudouin d'Aumeries
Assistance for programming : Marc-Olivier Méhu
Technical & hardware support : Manuel Goepfert

Contact : metmap@orbifly.com




SOURCES & CREDITS :

   NOAA       Earth
Advisory